Time;durP1;ratioP1;P1;durP2;ratioP2;P2;SDS_P1;SDS_P2;PMS_P1;PMS_P2;Temp;Humidity;BMP_temperature;BMP_pressure;BME280_temperature;BME280_humidity;BME280_pressure;Samples;Min_cycle;Max_cycle;Signal;HPM_P1;HPM_P2
2022/11/05 00:19:12;;;;;;;10.33;6.17;;;10.40;99.90;;;;;;10454480;28;20385;-72
2022/11/05 00:29:32;;;;;;;6.33;5.67;;;10.40;99.90;;;;;;10470761;28;20222;-72
2022/11/05 00:34:32;;;;;;;7.40;5.27;;;10.50;99.90;;;;;;10474931;28;20220;-72
2022/11/05 00:39:33;;;;;;;9.13;5.50;;;10.50;99.90;;;;;;10473464;28;20707;-71
2022/11/05 00:49:53;;;;;;;5.43;4.70;;;10.50;99.90;;;;;;10468322;28;20222;-72
2022/11/05 00:54:53;;;;;;;5.97;4.80;;;10.50;99.90;;;;;;10504191;28;20326;-72
2022/11/05 00:59:54;;;;;;;6.63;5.20;;;10.50;99.90;;;;;;10504859;28;20704;-72
2022/11/05 01:04:54;;;;;;;6.93;5.53;;;10.50;99.90;;;;;;10466906;28;20223;-72
2022/11/05 01:09:55;;;;;;;5.57;5.03;;;10.50;99.90;;;;;;10475066;28;20578;-72
2022/11/05 01:14:55;;;;;;;6.67;5.23;;;10.40;99.90;;;;;;10470776;28;20227;-72
2022/11/05 01:19:56;;;;;;;5.80;5.20;;;10.50;99.90;;;;;;10474467;28;20227;-72
2022/11/05 01:24:56;;;;;;;6.27;4.93;;;10.50;99.90;;;;;;10470401;28;20777;-72
2022/11/05 01:29:57;;;;;;;6.77;5.20;;;10.50;99.90;;;;;;10474705;28;20238;-72
2022/11/05 01:34:57;;;;;;;8.33;5.40;;;10.50;99.90;;;;;;10467014;28;20215;-72
2022/11/05 01:39:58;;;;;;;7.40;5.50;;;10.50;99.90;;;;;;10465282;28;20242;-72
2022/11/05 01:45:03;;;;;;;6.03;5.43;;;10.50;99.90;;;;;;10474176;28;20222;-73
2022/11/05 01:50:18;;;;;;;7.13;5.17;;;10.50;99.90;;;;;;10466659;28;20249;-72
2022/11/05 01:55:23;;;;;;;6.17;5.57;;;10.40;99.90;;;;;;10465594;28;20223;-72
2022/11/05 02:00:24;;;;;;;5.80;5.20;;;10.40;99.90;;;;;;10467231;28;20194;-73
2022/11/05 02:05:25;;;;;;;5.83;5.17;;;10.40;99.90;;;;;;10500568;28;20606;-73
2022/11/05 02:10:27;;;;;;;6.53;5.17;;;10.30;99.90;;;;;;10504670;28;20227;-72
2022/11/05 02:15:47;;;;;;;8.93;5.57;;;10.30;99.90;;;;;;10469229;28;20234;-73
2022/11/05 02:21:31;;;;;;;6.43;5.37;;;10.30;99.90;;;;;;10502717;28;20215;-72
2022/11/05 02:26:37;;;;;;;6.90;5.10;;;10.20;99.90;;;;;;10463360;28;20227;-71
2022/11/05 02:32:00;;;;;;;5.90;5.07;;;10.20;99.90;;;;;;10469854;28;20220;-72
2022/11/05 02:37:08;;;;;;;5.93;5.10;;;10.20;99.90;;;;;;10465568;28;20212;-72
2022/11/05 02:42:32;;;;;;;6.07;5.10;;;10.20;99.90;;;;;;10472838;28;20249;-72
2022/11/05 02:48:14;;;;;;;6.17;5.50;;;10.10;99.90;;;;;;10441531;28;20811;-72
2022/11/05 02:53:23;;;;;;;6.53;5.57;;;10.10;99.90;;;;;;10413126;28;20314;-72
2022/11/05 02:58:27;;;;;;;7.97;5.70;;;10.10;99.90;;;;;;10466058;28;20267;-72
2022/11/05 03:03:51;;;;;;;5.83;5.23;;;10.10;99.90;;;;;;10495642;28;20211;-72
2022/11/05 03:09:16;;;;;;;5.77;4.87;;;10.10;99.90;;;;;;10464208;28;20226;-71
2022/11/05 03:14:31;;;;;;;6.93;5.50;;;10.10;99.90;;;;;;10457131;28;20239;-71
2022/11/05 03:19:40;;;;;;;10.43;6.80;;;10.10;99.90;;;;;;10500896;28;20234;-71
2022/11/05 03:24:51;;;;;;;8.33;6.17;;;10.10;99.90;;;;;;10463684;28;20952;-72
2022/11/05 03:29:59;;;;;;;8.37;6.97;;;10.10;99.90;;;;;;10469764;28;20231;-72
2022/11/05 03:35:14;;;;;;;8.30;6.73;;;10.20;99.90;;;;;;10464862;28;20770;-72
2022/11/05 03:40:18;;;;;;;9.93;6.93;;;10.20;99.90;;;;;;10454106;28;20218;-72
2022/11/05 03:45:27;;;;;;;9.67;7.63;;;10.20;99.90;;;;;;10471056;28;20251;-72
2022/11/05 03:50:39;;;;;;;13.53;8.20;;;10.10;99.90;;;;;;10468260;28;20214;-73
2022/11/05 03:55:53;;;;;;;12.40;11.10;;;10.20;99.90;;;;;;10465268;28;20326;-73
2022/11/05 04:00:54;;;;;;;14.23;11.27;;;10.20;99.90;;;;;;10477337;28;20226;-73
2022/11/05 04:27:12;;;;;;;17.00;13.50;;;10.10;99.90;;;;;;10463005;28;20601;-72
2022/11/05 04:32:15;;;;;;;18.47;14.40;;;10.10;99.90;;;;;;10477645;28;20227;-73
2022/11/05 04:37:16;;;;;;;17.10;14.57;;;10.10;99.90;;;;;;10468330;28;20756;-73
2022/11/05 04:42:19;;;;;;;17.10;14.53;;;10.10;99.90;;;;;;10477453;28;20306;-72
2022/11/05 04:47:19;;;;;;;21.87;16.37;;;10.10;99.90;;;;;;10470892;28;20218;-73
2022/11/05 04:52:20;;;;;;;19.13;15.00;;;10.10;99.90;;;;;;10468395;28;20769;-73
2022/11/05 04:57:21;;;;;;;20.67;16.27;;;10.10;99.90;;;;;;10471394;28;20223;-72
2022/11/05 05:02:21;;;;;;;19.87;15.83;;;10.00;99.90;;;;;;10477589;28;20230;-72
2022/11/05 05:07:22;;;;;;;20.63;16.00;;;10.00;99.90;;;;;;10474175;28;20237;-73
2022/11/05 05:12:22;;;;;;;19.67;15.87;;;10.00;99.90;;;;;;10470002;28;20609;-73
2022/11/05 05:17:24;;;;;;;20.37;14.73;;;10.00;99.90;;;;;;10477316;28;20220;-73
2022/11/05 05:22:24;;;;;;;17.47;14.60;;;10.00;99.90;;;;;;10477167;28;20226;-72
2022/11/05 05:27:28;;;;;;;17.53;13.33;;;10.00;99.90;;;;;;10472963;28;20222;-73
2022/11/05 05:32:28;;;;;;;17.93;12.90;;;9.90;99.90;;;;;;10477091;28;20261;-72
2022/11/05 05:37:32;;;;;;;16.10;12.63;;;9.90;99.90;;;;;;10469208;28;20228;-73
2022/11/05 05:42:32;;;;;;;18.03;11.83;;;9.80;99.90;;;;;;10470543;28;20227;-72
2022/11/05 05:47:33;;;;;;;14.80;11.17;;;9.80;99.90;;;;;;10470085;28;20226;-73
2022/11/05 05:52:33;;;;;;;12.17;10.37;;;9.70;99.90;;;;;;10472387;28;20235;-72
2022/11/05 05:57:34;;;;;;;15.80;10.30;;;9.70;99.90;;;;;;10464918;28;20245;-72
2022/11/05 06:02:34;;;;;;;10.93;9.10;;;9.70;99.90;;;;;;10471664;28;20281;-73
2022/11/05 06:07:35;;;;;;;12.37;9.10;;;9.60;99.90;;;;;;10501880;28;20223;-72
2022/11/05 06:12:35;;;;;;;10.70;8.20;;;9.60;99.90;;;;;;10471266;28;20242;-72
2022/11/05 06:17:36;;;;;;;10.00;8.63;;;9.70;99.90;;;;;;10469356;28;20246;-72
2022/11/05 06:22:37;;;;;;;9.93;8.13;;;9.70;99.90;;;;;;10469983;28;20247;-72
2022/11/05 06:27:37;;;;;;;9.43;7.40;;;9.70;99.90;;;;;;10468504;28;20777;-73
2022/11/05 06:32:38;;;;;;;10.17;7.90;;;9.70;99.90;;;;;;10473474;28;20227;-72
2022/11/05 06:37:39;;;;;;;11.57;7.80;;;9.70;99.90;;;;;;10502324;28;20587;-71
2022/11/05 06:42:42;;;;;;;10.87;7.63;;;9.60;99.90;;;;;;10463120;28;20230;-72
2022/11/05 06:47:42;;;;;;;10.50;6.93;;;9.70;99.90;;;;;;10501618;28;20326;-72
2022/11/05 06:52:43;;;;;;;15.60;8.50;;;9.70;99.90;;;;;;10464306;28;20226;-72
2022/11/05 06:57:43;;;;;;;10.90;8.07;;;9.70;99.90;;;;;;10467247;28;20215;-71
2022/11/05 07:02:45;;;;;;;11.80;8.13;;;9.70;99.90;;;;;;10500662;28;20225;-72
2022/11/05 07:07:45;;;;;;;13.27;8.67;;;9.80;99.90;;;;;;10460960;28;20215;-72
2022/11/05 07:12:46;;;;;;;17.60;8.93;;;9.80;99.90;;;;;;10467348;28;20230;-72
2022/11/05 07:17:47;;;;;;;14.23;9.23;;;9.80;99.90;;;;;;10499558;28;20216;-72
2022/11/05 07:22:48;;;;;;;12.53;8.90;;;9.90;99.90;;;;;;10501319;28;20254;-72
2022/11/05 07:27:48;;;;;;;15.40;10.07;;;9.90;99.90;;;;;;10467399;28;20254;-72
2022/11/05 07:32:52;;;;;;;18.67;9.23;;;9.90;99.90;;;;;;10468435;28;20650;-71
2022/11/05 07:37:54;;;;;;;14.70;9.30;;;9.90;99.90;;;;;;10458209;28;20302;-72
2022/11/05 07:43:00;;;;;;;15.43;9.20;;;10.00;99.90;;;;;;10471881;28;20735;-72
2022/11/05 07:48:02;;;;;;;11.47;8.30;;;10.00;99.90;;;;;;10472361;28;20227;-72
2022/11/05 07:53:11;;;;;;;12.57;8.67;;;10.20;99.90;;;;;;10462640;28;20860;-73
2022/11/05 07:58:11;;;;;;;12.97;7.67;;;10.30;99.90;;;;;;10461282;28;20212;-73
2022/11/05 08:03:14;;;;;;;12.47;7.90;;;10.50;99.90;;;;;;10455105;28;20229;-73
2022/11/05 08:08:17;;;;;;;10.93;7.43;;;10.60;99.90;;;;;;10470042;28;20222;-72
2022/11/05 08:13:18;;;;;;;9.17;7.10;;;10.80;99.90;;;;;;10463138;28;20227;-73
2022/11/05 08:18:18;;;;;;;10.50;7.50;;;11.00;99.90;;;;;;10470258;28;20223;-73
2022/11/05 08:23:19;;;;;;;9.67;7.13;;;11.20;99.90;;;;;;10496209;28;20590;-72
2022/11/05 08:28:20;;;;;;;9.57;7.40;;;11.40;99.90;;;;;;10470215;28;20225;-73
2022/11/05 08:33:23;;;;;;;9.47;7.00;;;11.60;99.90;;;;;;10463706;28;20270;-72
2022/11/05 08:38:23;;;;;;;12.57;7.43;;;12.00;99.90;;;;;;10469912;28;20710;-71
2022/11/05 08:43:24;;;;;;;9.17;7.67;;;12.50;99.90;;;;;;10466391;28;20218;-72
2022/11/05 08:48:24;;;;;;;8.83;7.07;;;12.90;99.90;;;;;;10463859;28;20219;-72
2022/11/05 08:53:25;;;;;;;11.73;7.47;;;13.20;99.90;;;;;;10470463;28;20230;-72
2022/11/05 08:58:25;;;;;;;9.27;6.83;;;13.30;99.90;;;;;;10472199;28;20223;-73
2022/11/05 09:03:27;;;;;;;10.73;7.20;;;13.40;99.90;;;;;;10474804;28;20223;-71
2022/11/05 09:08:28;;;;;;;6.80;5.50;;;14.60;99.90;;;;;;10471198;28;20301;-73
2022/11/05 09:13:29;;;;;;;8.13;5.97;;;18.60;99.90;;;;;;10474778;28;20290;-73
2022/11/05 09:18:30;;;;;;;7.83;5.30;;;22.80;99.90;;;;;;10496512;28;20296;-73
2022/11/05 09:23:30;;;;;;;6.73;5.23;;;25.70;91.40;;;;;;10475580;28;20230;-72
2022/11/05 09:28:32;;;;;;;7.77;5.50;;;26.20;78.20;;;;;;10470227;28;20790;-73
2022/11/05 09:33:36;;;;;;;7.43;5.80;;;27.60;67.80;;;;;;10476805;28;20730;-72
2022/11/05 09:38:36;;;;;;;7.40;5.50;;;27.80;59.50;;;;;;10464461;28;20213;-72
2022/11/05 09:43:44;;;;;;;7.00;5.13;;;24.80;63.20;;;;;;10475918;28;20656;-72
2022/11/05 09:48:50;;;;;;;7.20;6.30;;;21.90;75.30;;;;;;10470420;28;20874;-74
2022/11/05 09:53:52;;;;;;;9.20;6.10;;;19.70;82.10;;;;;;10466183;28;20231;-72
2022/11/05 09:59:01;;;;;;;11.10;6.50;;;18.20;90.20;;;;;;10466977;28;20226;-72
2022/11/05 10:04:11;;;;;;;8.27;5.93;;;17.20;94.70;;;;;;10473982;28;20231;-73
2022/11/05 10:09:33;;;;;;;8.83;5.17;;;17.80;96.20;;;;;;10467244;28;20831;-73
2022/11/05 10:14:46;;;;;;;9.33;4.80;;;22.90;82.00;;;;;;10464892;28;20257;-73
2022/11/05 10:20:08;;;;;;;10.63;5.70;;;27.30;59.80;;;;;;10469195;28;20264;-73
2022/11/05 10:25:20;;;;;;;11.40;5.57;;;28.10;51.70;;;;;;10514713;28;20259;-73
2022/11/05 10:30:22;;;;;;;5.97;4.33;;;29.80;49.40;;;;;;10461105;28;20190;-73
2022/11/05 10:35:25;;;;;;;8.53;4.70;;;30.40;48.00;;;;;;10472124;28;20686;-73
2022/11/05 10:40:40;;;;;;;8.37;4.33;;;29.90;48.30;;;;;;10466652;28;20660;-73
2022/11/05 10:45:53;;;;;;;5.47;4.03;;;30.90;46.10;;;;;;10470572;28;20238;-74
2022/11/05 10:50:57;;;;;;;6.67;4.00;;;31.60;42.50;;;;;;10462744;28;20207;-73
2022/11/05 10:55:58;;;;;;;8.97;4.63;;;27.80;46.90;;;;;;10464019;28;20232;-73
2022/11/05 11:01:03;;;;;;;6.60;3.73;;;26.00;49.70;;;;;;10464728;28;20219;-73
2022/11/05 11:06:11;;;;;;;7.27;3.60;;;24.40;54.50;;;;;;10470807;28;20744;-72
2022/11/05 11:11:31;;;;;;;6.60;3.90;;;23.00;56.40;;;;;;10495804;28;20230;-73
2022/11/05 11:16:37;;;;;;;11.00;4.27;;;20.70;62.90;;;;;;10465752;28;20765;-73
2022/11/05 11:21:40;;;;;;;6.00;3.73;;;19.30;69.60;;;;;;10464309;28;20308;-73
2022/11/05 11:26:41;;;;;;;8.10;3.70;;;18.10;73.60;;;;;;10454901;28;20576;-72
2022/11/05 11:31:42;;;;;;;8.33;4.73;;;17.30;78.00;;;;;;10471325;28;20235;-72
2022/11/05 11:36:48;;;;;;;6.30;3.63;;;16.70;81.10;;;;;;10499983;28;20217;-73
2022/11/05 11:41:56;;;;;;;6.33;3.23;;;16.30;84.10;;;;;;10465342;28;20219;-73
2022/11/05 11:47:01;;;;;;;7.20;4.23;;;16.30;86.40;;;;;;10467515;28;20261;-73
2022/11/05 11:52:09;;;;;;;9.90;3.90;;;16.30;86.80;;;;;;10464160;28;20930;-73
2022/11/05 11:57:24;;;;;;;5.60;3.93;;;16.40;88.50;;;;;;10504030;28;20219;-73
2022/11/05 12:02:55;;;;;;;5.47;3.67;;;16.60;90.50;;;;;;10439214;28;20222;-73
2022/11/05 12:08:03;;;;;;;7.43;3.37;;;16.80;90.10;;;;;;10468617;28;20224;-75
2022/11/05 12:13:16;;;;;;;7.40;3.57;;;16.90;88.00;;;;;;10496574;28;20233;-72
2022/11/05 12:18:48;;;;;;;4.13;2.77;;;16.70;87.30;;;;;;10460446;28;20220;-73
2022/11/05 12:24:14;;;;;;;4.83;3.00;;;16.50;88.00;;;;;;10479395;28;20280;-73
2022/11/05 12:29:33;;;;;;;6.80;3.10;;;16.20;90.20;;;;;;10476973;28;20689;-72
2022/11/05 12:34:49;;;;;;;7.53;3.00;;;16.00;91.30;;;;;;10473671;28;20701;-73
2022/11/05 12:40:09;;;;;;;5.97;3.30;;;15.50;92.40;;;;;;10470166;28;20211;-72
2022/11/05 12:45:18;;;;;;;7.63;3.50;;;14.90;94.00;;;;;;10469459;28;20223;-72
2022/11/05 12:50:49;;;;;;;8.73;3.40;;;14.30;95.70;;;;;;10463336;28;20185;-72
2022/11/05 12:55:51;;;;;;;7.50;3.57;;;13.90;98.10;;;;;;10472296;28;20228;-73
2022/11/05 13:01:00;;;;;;;6.23;3.27;;;13.60;99.90;;;;;;10473146;28;20253;-72
2022/11/05 13:06:14;;;;;;;9.10;4.63;;;13.50;99.90;;;;;;10470263;28;20243;-72
2022/11/05 13:11:35;;;;;;;4.67;3.00;;;13.50;99.90;;;;;;10461372;28;20750;-73
2022/11/05 13:16:58;;;;;;;11.87;3.50;;;13.50;99.90;;;;;;10472495;28;20601;-73
2022/11/05 13:22:24;;;;;;;8.67;3.07;;;13.60;99.90;;;;;;10475033;28;20310;-73
2022/11/05 13:27:45;;;;;;;5.93;3.13;;;13.60;99.90;;;;;;10468944;28;20353;-73
2022/11/05 13:32:52;;;;;;;5.27;2.77;;;13.70;99.90;;;;;;10464670;28;20318;-73
2022/11/05 13:44:01;;;;;;;5.97;2.40;;;13.80;99.90;;;;;;10460499;28;20223;-72
2022/11/05 13:49:20;;;;;;;3.80;1.83;;;13.70;99.90;;;;;;10435905;28;20302;-72
2022/11/05 13:54:27;;;;;;;5.47;1.87;;;13.60;99.90;;;;;;10462294;28;20253;-72
2022/11/05 13:59:40;;;;;;;6.80;1.80;;;13.60;99.90;;;;;;10475108;28;20300;-72
2022/11/05 14:04:48;;;;;;;7.20;2.03;;;13.50;99.90;;;;;;10471545;28;20222;-73
2022/11/05 14:10:04;;;;;;;7.87;2.27;;;13.40;99.90;;;;;;10474431;28;20226;-72
2022/11/05 14:15:08;;;;;;;4.87;2.03;;;13.30;99.90;;;;;;10467718;28;20636;-71
2022/11/05 14:20:36;;;;;;;7.13;2.50;;;13.30;99.90;;;;;;10506577;28;20187;-72
2022/11/05 14:25:37;;;;;;;4.23;1.87;;;13.10;99.90;;;;;;10465769;28;20981;-73
2022/11/05 14:30:45;;;;;;;5.80;2.30;;;13.10;99.90;;;;;;10466713;28;20216;-72
2022/11/05 14:35:46;;;;;;;5.57;2.03;;;13.10;99.90;;;;;;10460515;28;20228;-73
2022/11/05 14:40:47;;;;;;;5.20;1.80;;;13.10;99.90;;;;;;10470342;28;20223;-72
2022/11/05 14:46:05;;;;;;;3.83;1.70;;;12.70;99.90;;;;;;10462086;28;20226;-72
2022/11/05 14:51:27;;;;;;;5.93;1.70;;;12.20;99.90;;;;;;10471506;28;20304;-73
2022/11/05 14:56:28;;;;;;;3.10;1.47;;;11.70;99.90;;;;;;10470461;28;20765;-72
2022/11/05 15:01:34;;;;;;;3.67;1.83;;;11.50;99.90;;;;;;10466846;28;20220;-72
2022/11/05 15:06:35;;;;;;;4.70;1.83;;;11.50;99.90;;;;;;10464463;28;20223;-72
2022/11/05 15:11:55;;;;;;;3.40;1.70;;;11.50;99.90;;;;;;10467696;28;20325;-72
2022/11/05 15:17:19;;;;;;;4.57;2.60;;;11.60;99.90;;;;;;10464694;28;20620;-72
2022/11/05 15:22:51;;;;;;;2.10;1.73;;;11.60;99.90;;;;;;10458039;28;20546;-73
2022/11/05 15:28:17;;;;;;;4.27;2.33;;;11.50;99.90;;;;;;10496371;28;20227;-73
2022/11/05 15:33:20;;;;;;;3.60;2.10;;;11.40;99.90;;;;;;10457553;28;20937;-71
2022/11/05 15:38:33;;;;;;;3.67;2.13;;;11.20;99.90;;;;;;10503403;28;20275;-72
2022/11/05 15:43:33;;;;;;;9.17;2.47;;;10.90;99.90;;;;;;10463835;28;20227;-72
2022/11/05 15:48:35;;;;;;;9.20;2.27;;;10.60;99.90;;;;;;10465592;28;20250;-73
2022/11/05 15:53:58;;;;;;;3.40;2.40;;;10.40;99.90;;;;;;10492434;28;20251;-73
2022/11/05 15:59:05;;;;;;;4.23;2.30;;;10.10;99.90;;;;;;10473650;28;20220;-73
2022/11/05 16:04:19;;;;;;;3.00;2.50;;;9.90;99.90;;;;;;10477968;28;20233;-73
2022/11/05 16:09:31;;;;;;;3.67;2.50;;;9.80;99.90;;;;;;10465856;28;20230;-71
2022/11/05 16:14:34;;;;;;;6.40;3.13;;;9.60;99.90;;;;;;10509445;28;20242;-72
2022/11/05 16:19:38;;;;;;;4.80;2.80;;;9.50;99.90;;;;;;10472404;28;20229;-71
2022/11/05 16:24:39;;;;;;;8.30;5.23;;;9.40;99.90;;;;;;10473844;28;20249;-71
2022/11/05 16:29:49;;;;;;;6.97;5.00;;;9.30;99.90;;;;;;10484638;28;20283;-72
2022/11/05 16:34:57;;;;;;;8.40;6.23;;;9.30;99.90;;;;;;10470632;28;20219;-72
2022/11/05 16:39:58;;;;;;;11.57;7.67;;;9.30;99.90;;;;;;10477786;28;20222;-72
2022/11/05 16:44:58;;;;;;;14.90;9.07;;;9.30;99.90;;;;;;10504124;28;20234;-72
2022/11/05 16:49:59;;;;;;;13.20;9.27;;;9.30;99.90;;;;;;10471235;28;20215;-72
2022/11/05 16:54:59;;;;;;;15.03;11.00;;;9.30;99.90;;;;;;10477967;28;20224;-72
2022/11/05 17:00:00;;;;;;;12.67;10.10;;;9.20;99.90;;;;;;10470826;28;20218;-73
2022/11/05 17:05:00;;;;;;;14.97;10.23;;;9.20;99.90;;;;;;10475845;28;20641;-72
2022/11/05 17:10:01;;;;;;;16.30;9.70;;;9.10;99.90;;;;;;10469792;28;20657;-72
2022/11/05 17:15:04;;;;;;;14.33;10.63;;;9.00;99.90;;;;;;10474425;28;20699;-72
2022/11/05 17:20:12;;;;;;;12.23;10.90;;;8.80;99.90;;;;;;10469534;28;20222;-72
2022/11/05 17:25:13;;;;;;;12.50;10.13;;;8.70;99.90;;;;;;10477283;28;20201;-72
2022/11/05 17:30:14;;;;;;;11.90;10.57;;;8.60;99.90;;;;;;10459524;28;20494;-72
2022/11/05 17:35:15;;;;;;;16.57;13.30;;;8.50;99.90;;;;;;10474527;28;20217;-71
2022/11/05 17:40:18;;;;;;;22.77;14.53;;;8.40;99.90;;;;;;10475328;28;20640;-72
2022/11/05 17:45:18;;;;;;;15.57;12.73;;;8.30;99.90;;;;;;10466136;28;20224;-73
2022/11/05 17:50:19;;;;;;;17.77;14.57;;;8.20;99.90;;;;;;10468260;28;20221;-72
2022/11/05 17:55:20;;;;;;;22.20;17.37;;;8.10;99.90;;;;;;10468276;28;20256;-72
2022/11/05 18:00:22;;;;;;;19.13;13.73;;;8.10;99.90;;;;;;10468203;28;20211;-72
2022/11/05 18:05:26;;;;;;;14.97;11.87;;;8.00;99.90;;;;;;10473869;28;20216;-72
2022/11/05 18:10:28;;;;;;;14.77;11.07;;;8.00;99.90;;;;;;10468235;28;20238;-73
2022/11/05 18:15:29;;;;;;;14.87;11.77;;;8.00;99.90;;;;;;10471515;27;20230;-72
2022/11/05 18:20:29;;;;;;;14.00;10.17;;;7.90;99.90;;;;;;10469028;28;20225;-73
2022/11/05 18:25:32;;;;;;;18.33;10.67;;;7.90;99.90;;;;;;10472302;28;20235;-73
2022/11/05 18:30:36;;;;;;;14.63;10.40;;;7.90;99.90;;;;;;10467962;28;20361;-72
2022/11/05 18:35:43;;;;;;;13.50;10.30;;;7.90;99.90;;;;;;10470600;28;20265;-72
2022/11/05 18:40:44;;;;;;;12.30;9.30;;;8.00;99.90;;;;;;10466935;28;20318;-72
2022/11/05 18:45:44;;;;;;;15.83;9.23;;;8.10;99.90;;;;;;10462124;28;20255;-72
2022/11/05 18:50:45;;;;;;;14.33;9.13;;;8.20;99.90;;;;;;10469104;28;20228;-72
2022/11/05 18:55:45;;;;;;;10.60;8.43;;;8.30;99.90;;;;;;10469565;28;20303;-72
2022/11/05 19:00:46;;;;;;;11.37;8.90;;;8.20;99.90;;;;;;10465624;28;20614;-72
2022/11/05 19:05:47;;;;;;;13.63;9.63;;;8.20;99.90;;;;;;10469348;28;20883;-73
2022/11/05 19:10:50;;;;;;;17.00;11.03;;;8.20;99.90;;;;;;10499544;28;20225;-72
2022/11/05 19:15:50;;;;;;;16.47;10.03;;;8.20;99.90;;;;;;10469896;28;20871;-73
2022/11/05 19:20:51;;;;;;;14.50;10.60;;;8.20;99.90;;;;;;10467389;28;20212;-73
2022/11/05 19:25:52;;;;;;;11.37;9.07;;;8.20;99.90;;;;;;10467329;28;20228;-72
2022/11/05 19:30:52;;;;;;;17.20;9.77;;;8.10;99.90;;;;;;10466647;28;20224;-73
2022/11/05 19:35:53;;;;;;;12.33;9.07;;;8.10;99.90;;;;;;10499691;28;20224;-72
2022/11/05 19:40:53;;;;;;;12.27;10.33;;;8.00;99.90;;;;;;10495606;28;20216;-73
2022/11/05 19:45:54;;;;;;;14.83;10.27;;;8.00;99.90;;;;;;10461036;28;20222;-72
2022/11/05 19:50:55;;;;;;;13.77;10.47;;;8.00;99.90;;;;;;10464395;28;20280;-72
2022/11/05 19:55:55;;;;;;;13.43;10.00;;;8.00;99.90;;;;;;10461522;28;20243;-72
2022/11/05 20:00:56;;;;;;;13.07;9.13;;;8.10;99.90;;;;;;10466236;28;20219;-72
2022/11/05 20:06:06;;;;;;;11.47;9.33;;;8.20;99.90;;;;;;10464052;28;20701;-72
2022/11/05 20:11:07;;;;;;;14.27;9.37;;;8.20;99.90;;;;;;10470929;28;20219;-72
2022/11/05 20:16:25;;;;;;;13.00;9.43;;;8.20;99.90;;;;;;10464146;28;20220;-72
2022/11/05 20:21:25;;;;;;;10.80;9.70;;;8.10;99.90;;;;;;10458685;28;20285;-72
2022/11/05 20:26:27;;;;;;;13.10;8.67;;;8.00;99.90;;;;;;10468176;28;20220;-72
2022/11/05 20:31:31;;;;;;;11.30;8.73;;;7.90;99.90;;;;;;10471680;28;20629;-73
2022/11/05 20:36:35;;;;;;;15.90;8.07;;;7.90;99.90;;;;;;10490570;28;20270;-72
2022/11/05 20:41:35;;;;;;;11.17;7.50;;;7.80;99.90;;;;;;10475762;28;20230;-72
2022/11/05 20:46:36;;;;;;;10.23;7.67;;;7.70;99.90;;;;;;10470603;28;20220;-72
2022/11/05 20:51:36;;;;;;;12.30;7.90;;;7.60;99.90;;;;;;10473650;28;20310;-71
2022/11/05 20:56:37;;;;;;;11.33;7.53;;;7.60;99.90;;;;;;10473374;28;20218;-72
2022/11/05 21:01:38;;;;;;;10.37;7.43;;;7.60;99.90;;;;;;10474422;28;20211;-72
2022/11/05 21:06:38;;;;;;;9.53;7.47;;;7.60;99.90;;;;;;10505598;28;20354;-72
2022/11/05 21:16:58;;;;;;;10.30;7.97;;;7.60;99.90;;;;;;10469233;28;20226;-72
2022/11/05 21:21:59;;;;;;;11.70;7.50;;;7.60;99.90;;;;;;10507433;28;20222;-73
2022/11/05 21:27:01;;;;;;;13.33;7.50;;;7.60;99.90;;;;;;10471642;28;20680;-72
2022/11/05 21:32:02;;;;;;;11.03;7.67;;;7.60;99.90;;;;;;10508175;28;20264;-72
2022/11/05 21:37:04;;;;;;;12.37;7.40;;;7.60;99.90;;;;;;10469662;28;20286;-72
2022/11/05 21:42:05;;;;;;;10.93;6.43;;;7.60;99.90;;;;;;10450445;28;20224;-72
2022/11/05 21:47:05;;;;;;;10.73;6.03;;;7.60;99.90;;;;;;10451471;28;20692;-71
2022/11/05 22:02:44;;;;;;;10.80;6.13;;;7.70;99.90;;;;;;10471901;28;20214;-72
2022/11/05 22:07:45;;;;;;;9.77;5.33;;;7.80;99.90;;;;;;10469871;28;20225;-72
2022/11/05 22:12:46;;;;;;;13.40;5.90;;;7.80;99.90;;;;;;10503539;28;20280;-72
2022/11/05 22:17:49;;;;;;;6.60;5.27;;;7.90;99.90;;;;;;10469999;28;20226;-73
2022/11/05 22:22:49;;;;;;;9.13;5.60;;;7.90;99.90;;;;;;10471554;28;20228;-72
2022/11/05 22:27:50;;;;;;;11.53;5.73;;;7.90;99.90;;;;;;10469876;28;20233;-72
2022/11/05 22:32:50;;;;;;;7.80;5.17;;;8.00;99.90;;;;;;10464609;28;20796;-72
2022/11/05 22:37:51;;;;;;;9.03;4.90;;;8.00;99.90;;;;;;10471997;28;20222;-73
2022/11/05 22:42:52;;;;;;;5.90;5.00;;;8.10;99.90;;;;;;10465680;28;20313;-73
2022/11/05 22:47:52;;;;;;;8.37;5.30;;;8.00;99.90;;;;;;10474188;28;20227;-73
2022/11/05 22:52:53;;;;;;;9.73;5.40;;;8.00;99.90;;;;;;10467974;28;20245;-72
2022/11/05 22:57:53;;;;;;;10.10;5.50;;;8.00;99.90;;;;;;10503755;28;20214;-72
2022/11/05 23:02:54;;;;;;;6.60;4.70;;;8.00;99.90;;;;;;10467605;28;20297;-72
2022/11/05 23:13:14;;;;;;;10.47;5.07;;;7.90;99.90;;;;;;10464625;28;20238;-73
2022/11/05 23:28:52;;;;;;;7.93;5.00;;;8.00;99.90;;;;;;10470077;28;20236;-72
2022/11/05 23:33:53;;;;;;;10.47;4.77;;;8.10;99.90;;;;;;10472485;28;20315;-71
2022/11/05 23:38:53;;;;;;;8.57;5.10;;;8.00;99.90;;;;;;10466362;28;20218;-73
2022/11/05 23:49:13;;;;;;;11.77;6.00;;;7.90;99.90;;;;;;10462341;28;20225;-71
2022/11/05 23:54:14;;;;;;;9.17;5.50;;;7.90;99.90;;;;;;10487647;28;20654;-73
2022/11/05 23:59:15;;;;;;;9.37;5.90;;;7.80;99.90;;;;;;10470191;28;20219;-71
